Wind From: 11-12-2017 04:25 Until: 16:00 warning for: Wind Level: Orange info button

Power and phone distribution networks may be disrupted for relatively long periods., Roofs and chimneys can be damaged. , Tree branches may break. , Vehicles can be deported. , Traffic may be disrupted, particularly on secondary roads in forest areas. Limit your trips. , Limit your speed in highway driving, especially if you drive a vehicle or hitch sensitive to wind. , Do not go for walks in forests or along the coast., In town, be vigilant against possible falling objects., Do not work on roofs and do not touch any electrical line fallen on the ground., Store or secure sensitive objects to wind or likely to be damaged., Always install power generators outside buildings. 


Meteo18 Weather Cam more information Meteo18 Weather Cam


Thunder radar more information blitzortung!


Rain radar more information rain snow radar


Visit our other weather sites:

Template documentation
and downloads

And another site



Weather Underground History page Text

Daily Summary for June 10, 2017 Units:  English    Metric   Both
« Previous Day
Next Day »
Daily Weekly Monthly Yearly Custom
  High: Low: Average:
Temperature: 83.1 °F 52.9 °F 68.5 °F
Dew Point: 61.2 °F 50.4 °F 55.2 °F
Humidity: 94 % 36 % 66 %
Wind Speed: 6 mph 0 mph 1.1 mph
Wind Gust: 10 mph - -
Wind:- - SSW
Pressure: 30.2 in 30.1 in -
Precipitation: 0 in    
Historical Graphs
 
 
Tabular Data for June 10, 2017
Time Temperature Dew Point Pressure Wind Wind Speed Wind Gust Humidity Rainfall Rate (Hourly)
00:02 61.2 °F 55.2 °F 30.1 in Calm     81 % 0 in
00:07 61 °F 55 °F 30.1 in Calm     81 % 0 in
00:12 61 °F 55.4 °F 30.1 in Calm     82 % 0 in
00:17 60.6 °F 55 °F 30.1 in Calm     82 % 0 in
00:22 60.4 °F 54.5 °F 30.1 in Calm     81 % 0 in
00:27 60.4 °F 54.9 °F 30.1 in Calm     82 % 0 in
00:32 60.4 °F 54.9 °F 30.1 in Calm     82 % 0 in
00:37 60.4 °F 55.2 °F 30.1 in Calm     83 % 0 in
00:42 60.1 °F 54.9 °F 30.1 in Calm     83 % 0 in
00:52 59.7 °F 54.9 °F 30.1 in Calm     84 % 0 in
00:57 59.5 °F 55 °F 30.1 in Calm     85 % 0 in
01:02 59.5 °F 55 °F 30.1 in Calm     85 % 0 in
01:07 59.4 °F 54.9 °F 30.1 in Calm     85 % 0 in
01:12 59.4 °F 54.9 °F 30.1 in Calm     85 % 0 in
01:22 59.4 °F 54.9 °F 30.1 in Calm     85 % 0 in
01:27 59.2 °F 55 °F 30.1 in Calm     86 % 0 in
01:32 59 °F 54.9 °F 30.1 in Calm     86 % 0 in
01:37 58.8 °F 54.7 °F 30.1 in Calm     86 % 0 in
01:42 58.6 °F 54.9 °F 30.1 in Calm     87 % 0 in
01:47 58.6 °F 54.9 °F 30.1 in Calm     87 % 0 in
01:52 58.5 °F 54.7 °F 30.1 in Calm     87 % 0 in
01:57 58.5 °F 54.7 °F 30.1 in Calm     87 % 0 in
02:02 58.3 °F 54.5 °F 30.1 in Calm     87 % 0 in
02:07 58.3 °F 54.7 °F 30.1 in Calm     88 % 0 in
02:12 57.9 °F 54.1 °F 30.1 in Calm     87 % 0 in
02:17 57.9 °F 54.3 °F 30.1 in Calm     88 % 0 in
02:22 57.7 °F 54.1 °F 30.1 in Calm     88 % 0 in
02:32 57.6 °F 54 °F 30.1 in Calm     88 % 0 in
02:37 57.2 °F 53.6 °F 30.1 in Calm     88 % 0 in
02:42 57 °F 53.4 °F 30.1 in Calm     88 % 0 in
02:47 56.8 °F 53.6 °F 30.1 in Calm     89 % 0 in
02:52 56.8 °F 53.6 °F 30.1 in Calm     89 % 0 in
02:57 56.7 °F 53.4 °F 30.1 in Calm     89 % 0 in
03:02 56.5 °F 53.2 °F 30.1 in Calm     89 % 0 in
03:07 56.5 °F 53.2 °F 30.1 in Calm     89 % 0 in
03:12 55.9 °F 52.7 °F 30.1 in Calm     89 % 0 in
03:17 55.9 °F 53.1 °F 30.1 in Calm     90 % 0 in
03:22 55.8 °F 52.9 °F 30.1 in Calm     90 % 0 in
03:27 55.6 °F 52.7 °F 30.1 in Calm     90 % 0 in
03:32 55.4 °F 52.5 °F 30.1 in Calm     90 % 0 in
03:37 55.2 °F 52.7 °F 30.1 in Calm     91 % 0 in
03:42 55.2 °F 52.7 °F 30.1 in Calm     91 % 0 in
03:47 55 °F 52.5 °F 30.1 in Calm     91 % 0 in
03:52 54.9 °F 52.3 °F 30.1 in Calm     91 % 0 in
03:57 54.9 °F 52.5 °F 30.1 in Calm     92 % 0 in
04:02 55 °F 52.7 °F 30.1 in Calm     92 % 0 in
04:07 55 °F 52.5 °F 30.1 in Calm     91 % 0 in
04:12 54.9 °F 52.3 °F 30.1 in Calm     91 % 0 in
04:17 54.7 °F 52.2 °F 30.1 in Calm     91 % 0 in
04:22 54.7 °F 52.3 °F 30.1 in Calm     92 % 0 in
04:27 54.7 °F 52.3 °F 30.1 in Calm     92 % 0 in
04:32 54.9 °F 52.5 °F 30.1 in Calm     92 % 0 in
04:37 54.9 °F 52.5 °F 30.1 in Calm     92 % 0 in
04:42 54.9 °F 52.3 °F 30.1 in Calm     91 % 0 in
04:47 54.7 °F 52.2 °F 30.1 in Calm     91 % 0 in
04:52 54.5 °F 52 °F 30.1 in Calm     91 % 0 in
05:02 54.3 °F 52 °F 30.1 in Calm     92 % 0 in
05:12 53.8 °F 51.4 °F 30.1 in Calm     92 % 0 in
05:17 53.6 °F 51.3 °F 30.1 in Calm     92 % 0 in
05:22 53.4 °F 51.4 °F 30.1 in Calm     93 % 0 in
05:27 53.4 °F 51.4 °F 30.1 in Calm     93 % 0 in
05:32 53.1 °F 51.1 °F 30.1 in Calm     93 % 0 in
05:37 52.9 °F 50.9 °F 30.1 in NW 1 mph   93 % 0 in
05:42 53.1 °F 51.4 °F 30.1 in WNW 1 mph 1 mph 94 % 0 in
05:47 53.2 °F 51.6 °F 30.1 in Calm   1 mph 94 % 0 in
05:52 53.2 °F 51.6 °F 30.1 in Calm   1 mph 94 % 0 in
05:57 53.2 °F 51.6 °F 30.1 in Calm   1 mph 94 % 0 in
06:02 53.2 °F 51.3 °F 30.1 in Calm   1 mph 93 % 0 in
06:07 52.9 °F 50.9 °F 30.1 in Calm   1 mph 93 % 0 in
06:12 52.9 °F 51.3 °F 30.1 in Calm   1 mph 94 % 0 in
06:17 52.9 °F 51.3 °F 30.1 in Calm   1 mph 94 % 0 in
06:22 52.9 °F 51.3 °F 30.1 in Calm   1 mph 94 % 0 in
06:32 53.4 °F 51.8 °F 30.1 in Calm     94 % 0 in
06:42 54.3 °F 52.7 °F 30.1 in Calm   1 mph 94 % 0 in
06:47 55 °F 53.4 °F 30.1 in Calm   1 mph 94 % 0 in
06:52 56.3 °F 54.3 °F 30.1 in Calm   1 mph 93 % 0 in
06:57 56.7 °F 54.3 °F 30.1 in Calm     92 % 0 in
07:02 57.4 °F 54.9 °F 30.1 in Calm     91 % 0 in
07:12 58.5 °F 54.9 °F 30.1 in Calm     88 % 0 in
07:17 59.5 °F 55.6 °F 30.1 in Calm     87 % 0 in
07:22 60.4 °F 55.9 °F 30.2 in Calm     85 % 0 in
07:32 61.9 °F 55.6 °F 30.2 in Calm     80 % 0 in
07:37 62.1 °F 55.8 °F 30.2 in Calm     80 % 0 in
07:42 62.2 °F 55.9 °F 30.2 in Calm   1 mph 80 % 0 in
07:47 62.1 °F 55.8 °F 30.2 in Calm   1 mph 80 % 0 in
07:52 61.7 °F 56.1 °F 30.2 in Calm   1 mph 82 % 0 in
07:57 61.3 °F 56.1 °F 30.2 in Calm   1 mph 83 % 0 in
08:02 60.6 °F 56.1 °F 30.2 in SSW 2 mph 2 mph 85 % 0 in
08:07 60.4 °F 56.3 °F 30.2 in Calm   3 mph 86 % 0 in
08:12 60.4 °F 56.5 °F 30.2 in South 1 mph 3 mph 87 % 0 in
08:17 60.6 °F 57 °F 30.2 in Calm   4 mph 88 % 0 in
08:22 61.3 °F 57.7 °F 30.2 in SW 1 mph 4 mph 88 % 0 in
08:27 61.5 °F 57.6 °F 30.2 in SSW 1 mph 3 mph 87 % 0 in
08:32 61.7 °F 57.7 °F 30.2 in Calm   3 mph 87 % 0 in
08:37 62.1 °F 58.1 °F 30.2 in SE 3 mph 4 mph 87 % 0 in
08:42 62.6 °F 58.3 °F 30.2 in SW 1 mph 4 mph 86 % 0 in
08:47 62.8 °F 58.3 °F 30.2 in SW 5 mph 5 mph 85 % 0 in
08:52 63 °F 58.5 °F 30.2 in SSW 1 mph 5 mph 85 % 0 in
08:57 63.1 °F 58.3 °F 30.2 in SSW 2 mph 5 mph 84 % 0 in
09:02 63.3 °F 58.5 °F 30.2 in SSW 1 mph 5 mph 84 % 0 in
09:07 63.9 °F 59 °F 30.2 in SSW 2 mph 5 mph 84 % 0 in
09:12 63.9 °F 58.6 °F 30.2 in SW 3 mph 5 mph 83 % 0 in
09:17 64 °F 58.8 °F 30.2 in SW 2 mph 6 mph 83 % 0 in
09:22 64.2 °F 59 °F 30.2 in South 2 mph 6 mph 83 % 0 in
09:27 64.4 °F 58.8 °F 30.2 in West 1 mph 6 mph 82 % 0 in
09:32 64.9 °F 59.4 °F 30.2 in SW 1 mph 6 mph 82 % 0 in
09:37 64.9 °F 58.6 °F 30.2 in WSW 4 mph 6 mph 80 % 0 in
09:42 65.1 °F 58.8 °F 30.2 in South 2 mph 6 mph 80 % 0 in
09:47 65.5 °F 59.2 °F 30.2 in SSW 2 mph 6 mph 80 % 0 in
09:52 66.4 °F 59.7 °F 30.2 in SW 4 mph 6 mph 79 % 0 in
09:57 66.6 °F 59.9 °F 30.2 in SSE 2 mph 6 mph 79 % 0 in
10:02 66.9 °F 59.9 °F 30.2 in SW 1 mph 6 mph 78 % 0 in
10:12 67.8 °F 58.8 °F 30.2 in WSW 3 mph 6 mph 73 % 0 in
10:17 67.6 °F 58.3 °F 30.2 in SSW 5 mph 7 mph 72 % 0 in
10:22 68.4 °F 59 °F 30.2 in SW 4 mph 7 mph 72 % 0 in
10:32 69.6 °F 58.6 °F 30.2 in WSW 4 mph 7 mph 68 % 0 in
10:37 70 °F 58.1 °F 30.2 in ESE 1 mph 6 mph 66 % 0 in
10:42 70.2 °F 57.9 °F 30.2 in South 2 mph 6 mph 65 % 0 in
10:47 70.5 °F 58.1 °F 30.2 in SW 4 mph 6 mph 65 % 0 in
10:52 70.9 °F 58.1 °F 30.2 in SE 1 mph 6 mph 64 % 0 in
10:57 70.9 °F 56.8 °F 30.2 in WSW 3 mph 7 mph 61 % 0 in
11:02 70.9 °F 57.2 °F 30.2 in SSW 3 mph 7 mph 62 % 0 in
11:07 71.2 °F 55.8 °F 30.2 in SW 4 mph 7 mph 58 % 0 in
11:12 71.1 °F 55.9 °F 30.2 in Calm   7 mph 59 % 0 in
11:17 72 °F 56.8 °F 30.2 in SSE 4 mph 7 mph 59 % 0 in
11:27 72.7 °F 57 °F 30.2 in SW 1 mph 6 mph 58 % 0 in
11:32 72.9 °F 57.7 °F 30.2 in WNW 4 mph 6 mph 59 % 0 in
11:37 72.9 °F 57.7 °F 30.2 in South 1 mph 7 mph 59 % 0 in
11:42 72.9 °F 55.8 °F 30.2 in WNW 2 mph 7 mph 55 % 0 in
11:47 73 °F 56.8 °F 30.2 in SE 2 mph 6 mph 57 % 0 in
11:57 73.6 °F 56.5 °F 30.2 in South 4 mph 8 mph 55 % 0 in
12:02 73.6 °F 55.9 °F 30.2 in Calm   8 mph 54 % 0 in
12:12 73.8 °F 57 °F 30.2 in SW 6 mph 6 mph 56 % 0 in
12:17 74.1 °F 55.4 °F 30.2 in WSW 1 mph 6 mph 52 % 0 in
12:22 74.3 °F 56.7 °F 30.2 in SSW 2 mph 6 mph 54 % 0 in
12:27 73.9 °F 56.3 °F 30.2 in Calm   6 mph 54 % 0 in
12:32 74.7 °F 56.5 °F 30.2 in SSW 1 mph 6 mph 53 % 0 in
12:37 74.8 °F 55.6 °F 30.2 in SW 6 mph 6 mph 51 % 0 in
12:42 75.2 °F 55.8 °F 30.2 in West 1 mph 8 mph 51 % 0 in
12:52 74.3 °F 54 °F 30.2 in SW 1 mph 9 mph 49 % 0 in
12:57 74.5 °F 54.1 °F 30.2 in SW 6 mph 9 mph 49 % 0 in
13:02 74.8 °F 55 °F 30.2 in SSW 6 mph 8 mph 50 % 0 in
13:07 74.8 °F 53.8 °F 30.2 in WSW 2 mph 9 mph 48 % 0 in
13:12 75.4 °F 54.3 °F 30.2 in SSW 1 mph 9 mph 48 % 0 in
13:17 75.4 °F 53.8 °F 30.2 in SSW 4 mph 9 mph 47 % 0 in
13:22 75.6 °F 55.6 °F 30.2 in SSW 5 mph 9 mph 50 % 0 in
13:27 75.4 °F 53.8 °F 30.2 in Calm   9 mph 47 % 0 in
13:32 75.7 °F 54.7 °F 30.2 in SW 5 mph 9 mph 48 % 0 in
13:42 76.3 °F 54 °F 30.2 in East 1 mph 8 mph 46 % 0 in
13:47 76.5 °F 53.6 °F 30.2 in Calm   8 mph 45 % 0 in
13:52 77.2 °F 54.1 °F 30.2 in SW 5 mph 8 mph 45 % 0 in
14:02 76.8 °F 52.7 °F 30.2 in SSW 2 mph 10 mph 43 % 0 in
14:07 76.6 °F 51.3 °F 30.2 in SSE 1 mph 10 mph 41 % 0 in
14:12 77.2 °F 51.6 °F 30.2 in West 3 mph 9 mph 41 % 0 in
14:17 76.6 °F 51.8 °F 30.2 in West 1 mph 9 mph 42 % 0 in
14:23 76.6 °F 53.8 °F 30.2 in SW 4 mph 9 mph 45 % 0 in
14:32 77.7 °F 54.1 °F 30.2 in SW 6 mph 7 mph 44 % 0 in
14:37 77.2 °F 52.3 °F 30.2 in Calm   8 mph 42 % 0 in
14:42 77.9 °F 52.9 °F 30.2 in Calm   8 mph 42 % 0 in
14:47 78.4 °F 52.2 °F 30.1 in West 3 mph 8 mph 40 % 0 in
14:52 78.4 °F 53.4 °F 30.2 in SW 5 mph 8 mph 42 % 0 in
14:57 77.7 °F 52.2 °F 30.2 in West 1 mph 8 mph 41 % 0 in
15:02 78.1 °F 50.4 °F 30.2 in SW 3 mph 8 mph 38 % 0 in
15:12 78.8 °F 52.5 °F 30.2 in South 3 mph 6 mph 40 % 0 in
15:17 78.6 °F 53.6 °F 30.2 in SW 6 mph 8 mph 42 % 0 in
15:22 78.3 °F 53.2 °F 30.1 in West 3 mph 9 mph 42 % 0 in
15:32 78.3 °F 53.2 °F 30.1 in WSW 3 mph 9 mph 42 % 0 in
15:37 78.4 °F 53.4 °F 30.1 in Calm   9 mph 42 % 0 in
15:42 79.2 °F 53.4 °F 30.1 in WSW 2 mph 9 mph 41 % 0 in
15:47 78.8 °F 53.8 °F 30.1 in WSW 4 mph 5 mph 42 % 0 in
15:52 79.2 °F 52.7 °F 30.1 in SSW 3 mph 8 mph 40 % 0 in
15:57 79.2 °F 53.4 °F 30.1 in SE 1 mph 8 mph 41 % 0 in
16:02 79.5 °F 53.1 °F 30.1 in East 2 mph 8 mph 40 % 0 in
16:07 79.3 °F 54.3 °F 30.1 in Calm   8 mph 42 % 0 in
16:12 80.1 °F 53.6 °F 30.1 in ENE 2 mph 5 mph 40 % 0 in
16:22 80.4 °F 54.5 °F 30.1 in SSE 4 mph 4 mph 41 % 0 in
16:27 80.4 °F 54.5 °F 30.1 in SW 3 mph 6 mph 41 % 0 in
16:32 80.4 °F 52.5 °F 30.1 in SW 3 mph 6 mph 38 % 0 in
16:37 80.4 °F 53.2 °F 30.1 in SSW 4 mph 9 mph 39 % 0 in
16:42 80.8 °F 51.3 °F 30.1 in SSW 1 mph 9 mph 36 % 0 in
16:52 81 °F 52.2 °F 30.1 in Calm   7 mph 37 % 0 in
17:02 81 °F 52.9 °F 30.1 in South 1 mph 7 mph 38 % 0 in
17:07 81.5 °F 54.1 °F 30.1 in ESE 1 mph 5 mph 39 % 0 in
17:12 81.3 °F 55.4 °F 30.1 in SW 2 mph 5 mph 41 % 0 in
17:17 81.3 °F 56.1 °F 30.1 in Calm   5 mph 42 % 0 in
17:22 82 °F 55.9 °F 30.1 in SW 4 mph 5 mph 41 % 0 in
17:32 80.8 °F 54.1 °F 30.1 in SW 2 mph 4 mph 40 % 0 in
17:37 81.1 °F 55.9 °F 30.1 in Calm   4 mph 42 % 0 in
17:42 81.3 °F 56.1 °F 30.1 in SSW 1 mph 4 mph 42 % 0 in
17:47 81.1 °F 55.2 °F 30.1 in South 3 mph 6 mph 41 % 0 in
17:52 81.1 °F 55.9 °F 30.1 in SSE 2 mph 6 mph 42 % 0 in
17:57 82 °F 56.7 °F 30.1 in Calm   6 mph 42 % 0 in
18:02 81.7 °F 57 °F 30.1 in ESE 3 mph 6 mph 43 % 0 in
18:07 81 °F 55.8 °F 30.1 in Calm   4 mph 42 % 0 in
18:12 81.7 °F 56.3 °F 30.1 in WSW 2 mph 4 mph 42 % 0 in
18:17 82 °F 55.9 °F 30.1 in SW 2 mph 4 mph 41 % 0 in
18:22 82.2 °F 56.8 °F 30.1 in Calm   4 mph 42 % 0 in
18:32 81.7 °F 57.6 °F 30.1 in Calm   4 mph 44 % 0 in
18:42 81.9 °F 55.9 °F 30.1 in SSW 1 mph 5 mph 41 % 0 in
18:47 81.7 °F 55 °F 30.1 in SW 2 mph 5 mph 40 % 0 in
18:52 81.3 °F 56.1 °F 30.1 in Calm   5 mph 42 % 0 in
18:57 81.3 °F 56.1 °F 30.1 in SW 3 mph 5 mph 42 % 0 in
19:02 81.1 °F 55.9 °F 30.1 in SSW 3 mph 5 mph 42 % 0 in
19:07 81 °F 55 °F 30.1 in NW 2 mph 4 mph 41 % 0 in
19:12 81.1 °F 55.9 °F 30.1 in WSW 1 mph 4 mph 42 % 0 in
19:17 80.8 °F 54.9 °F 30.1 in WSW 2 mph 4 mph 41 % 0 in
19:22 81.1 °F 56.5 °F 30.1 in Calm   4 mph 43 % 0 in
19:27 82.4 °F 57 °F 30.1 in Calm   4 mph 42 % 0 in
19:32 83.1 °F 57 °F 30.1 in Calm   4 mph 41 % 0 in
19:37 82.9 °F 56.1 °F 30.1 in Calm   1 mph 40 % 0 in
19:42 81.7 °F 55.8 °F 30.1 in SW 1 mph 3 mph 41 % 0 in
19:47 81.5 °F 56.1 °F 30.1 in Calm   3 mph 42 % 0 in
19:52 81.3 °F 54.7 °F 30.1 in West 3 mph 3 mph 40 % 0 in
19:57 81.1 °F 55.9 °F 30.1 in West 1 mph 3 mph 42 % 0 in
20:02 81.3 °F 54.7 °F 30.1 in WNW 1 mph 3 mph 40 % 0 in
20:07 81 °F 55.8 °F 30.1 in Calm   3 mph 42 % 0 in
20:12 80.8 °F 55.6 °F 30.1 in Calm   3 mph 42 % 0 in
20:17 81.3 °F 56.7 °F 30.1 in Calm   3 mph 43 % 0 in
20:22 81.9 °F 55.9 °F 30.1 in Calm   3 mph 41 % 0 in
20:32 82 °F 56.7 °F 30.1 in Calm     42 % 0 in
20:37 82 °F 55.9 °F 30.1 in Calm     41 % 0 in
20:42 82.8 °F 57.9 °F 30.1 in Calm     43 % 0 in
20:47 82.8 °F 57.9 °F 30.1 in Calm     43 % 0 in
20:52 82.2 °F 61.2 °F 30.1 in Calm     49 % 0 in
20:57 81.9 °F 60.8 °F 30.1 in Calm     49 % 0 in
21:02 81.9 °F 59 °F 30.1 in Calm     46 % 0 in
21:07 80.8 °F 60.4 °F 30.1 in Calm     50 % 0 in
21:12 80.4 °F 59 °F 30.1 in Calm     48 % 0 in
21:17 80.4 °F 58.3 °F 30.1 in Calm     47 % 0 in
21:22 79.9 °F 58.5 °F 30.1 in Calm     48 % 0 in
21:27 77.9 °F 58.8 °F 30.1 in Calm     52 % 0 in
21:32 76.1 °F 57.7 °F 30.1 in Calm     53 % 0 in
21:37 74.3 °F 56.1 °F 30.1 in Calm     53 % 0 in
21:42 73 °F 56.8 °F 30.1 in Calm     57 % 0 in
21:47 72 °F 55.4 °F 30.1 in Calm     56 % 0 in
21:57 71.4 °F 56.3 °F 30.1 in Calm     59 % 0 in
22:02 71.1 °F 56.8 °F 30.1 in Calm     61 % 0 in
22:07 70.3 °F 56.7 °F 30.1 in Calm     62 % 0 in
22:12 70 °F 57.2 °F 30.1 in Calm     64 % 0 in
22:17 69.3 °F 55.8 °F 30.1 in Calm     62 % 0 in
22:22 69.1 °F 56.5 °F 30.1 in Calm     64 % 0 in
22:27 68.7 °F 57.4 °F 30.1 in Calm     67 % 0 in
22:32 68.4 °F 57 °F 30.1 in Calm     67 % 0 in
22:37 68.2 °F 57.2 °F 30.1 in Calm     68 % 0 in
22:42 67.8 °F 56.8 °F 30.1 in Calm     68 % 0 in
22:47 68 °F 56.7 °F 30.1 in Calm     67 % 0 in
22:52 67.8 °F 56.8 °F 30.1 in Calm     68 % 0 in
22:57 67.6 °F 56.7 °F 30.1 in Calm     68 % 0 in
23:02 67.3 °F 56.8 °F 30.1 in Calm     69 % 0 in
23:07 67.3 °F 56.8 °F 30.1 in Calm     69 % 0 in
23:12 66.9 °F 56.8 °F 30.1 in Calm     70 % 0 in
23:17 66.4 °F 57 °F 30.1 in Calm     72 % 0 in
23:22 65.5 °F 57 °F 30.1 in Calm     74 % 0 in
23:27 65.1 °F 56.7 °F 30.1 in Calm     74 % 0 in
23:32 65.1 °F 56.7 °F 30.1 in Calm     74 % 0 in
23:37 64.9 °F 56.1 °F 30.1 in Calm     73 % 0 in
23:42 64.4 °F 56.3 °F 30.1 in Calm     75 % 0 in
23:47 64.2 °F 56.1 °F 30.1 in Calm     75 % 0 in
23:57 64.2 °F 56.1 °F 30.1 in Calm     75 % 0 in
Meteo18
Compliments of Weather Underground - 4 mb

Script developed by  Jim McMurry - jmcmurry@mwt.net Adapted for the template by  Wim van der Kuil - Leuven-Template.eu

You find our weather info also at:

European Weather Network

Weather Underground

Equipment we use:

Weather-station
Davis Vue

Weather-program
Meteohub

Weather-server
Raspberry PI 2 B+

Provider
1 and 1

Davis Vue

Meteohub

Raspberry PI 2 B+

1 and 1